LGAD/PYR METAR and TAF weather

Enter ICAO airport designator
Station Type Date Time Source
LGAD METAR 2018/12/11 21:50 UTC NOAA

LGAD 112150Z AUTO VRB01KT //// -RA ////// 06/05 Q1016 RE//


Station Type Date Time Source
LGAD Decoded METAR 2018/12/11 21:50 UTC NOAA

Andravida Airport , Greece (LGAD) 37-55N 021-17E 14M
Dec 11, 2018 - 04:50 PM EST / 2018.12.11 2150 UTC
Wind: Variable at 1 MPH (1 KT):0
Weather: light rain
Temperature: 42 F (6 C)
Dew Point: 41 F (5 C)
Relative Humidity: 93%
Pressure (altimeter): 30.00 in. Hg (1016 hPa)
ob: LGAD 112150Z AUTO VRB01KT //// -RA ////// 06/05 Q1016 RE//
cycle: 22

Station Type Date Time Source
LGAD TAF 2011/03/20 15:06 UTC NOAA

TAF TAF LGAD 201400Z 2015/2103 06010KT 9999 FEW020 BKN080 PROB40
TEMPO 2015/2021 6000 RA SCT020 BKN080 PROB30
TEMPO 2015/2021 4000 TSRA FEW018CB SCT025 BKN080


Example: see airport list